Time;durP1;ratioP1;P1;durP2;ratioP2;P2;SDS_P1;SDS_P2;PMS_P1;PMS_P2;Temp;Humidity;BMP_temperature;BMP_pressure;BME280_temperature;BME280_humidity;BME280_pressure;Samples;Min_cycle;Max_cycle;Signal;HPM_P1;HPM_P2
2023/12/23 00:00:46;;;;;;;5.55;1.25;;;;;;;;;;10017721;28;20396;-73
2023/12/23 00:05:38;;;;;;;1.42;1.10;;;;;;;;;;10017948;28;20053;-73
2023/12/23 00:10:29;;;;;;;1.42;1.23;;;;;;;;;;10018302;28;20134;-73
2023/12/23 00:15:21;;;;;;;118.20;50.67;;;;;;;;;;10016340;28;20472;-74
2023/12/23 00:20:13;;;;;;;1.58;1.30;;;;;;;;;;10015233;28;20034;-73
2023/12/23 00:25:06;;;;;;;1.95;0.90;;;;;;;;;;10016268;28;20049;-73
2023/12/23 00:29:58;;;;;;;1.15;0.90;;;;;;;;;;10018140;28;20081;-73
2023/12/23 00:34:49;;;;;;;1.33;0.80;;;;;;;;;;10015349;28;20057;-74
2023/12/23 00:39:41;;;;;;;2.15;1.00;;;;;;;;;;10017590;28;20377;-73
2023/12/23 00:44:33;;;;;;;1.55;0.85;;;;;;;;;;10018769;28;20054;-73
2023/12/23 00:49:25;;;;;;;1.02;0.80;;;;;;;;;;10015144;28;20042;-73
2023/12/23 00:54:17;;;;;;;0.70;0.70;;;;;;;;;;10035304;28;20866;-73
2023/12/23 00:59:09;;;;;;;0.52;0.52;;;;;;;;;;10015090;28;20042;-73
2023/12/23 01:04:01;;;;;;;0.88;0.70;;;;;;;;;;10015751;28;20048;-74
2023/12/23 01:08:53;;;;;;;1.55;1.48;;;;;;;;;;10017197;28;20042;-73
2023/12/23 01:13:45;;;;;;;1.50;0.73;;;;;;;;;;10015505;28;20179;-73
2023/12/23 01:18:37;;;;;;;1.42;0.73;;;;;;;;;;10016676;28;20103;-74
2023/12/23 01:23:29;;;;;;;2.15;0.90;;;;;;;;;;10018690;28;20132;-73
2023/12/23 01:28:21;;;;;;;1.52;0.98;;;;;;;;;;10015508;28;20446;-73
2023/12/23 01:33:12;;;;;;;1.15;1.05;;;;;;;;;;10013364;28;20066;-73
2023/12/23 01:38:04;;;;;;;1.08;0.98;;;;;;;;;;10019546;28;20529;-73
2023/12/23 01:43:00;;;;;;;1.30;1.20;;;;;;;;;;10012688;28;20042;-73
2023/12/23 01:47:52;;;;;;;2.33;1.35;;;;;;;;;;10011036;28;20089;-73
2023/12/23 01:52:45;;;;;;;1.20;1.10;;;;;;;;;;10014554;28;20057;-73
2023/12/23 01:57:37;;;;;;;3.40;1.33;;;;;;;;;;10011654;28;20049;-73
2023/12/23 02:02:30;;;;;;;2.35;1.70;;;;;;;;;;10015419;28;20057;-74
2023/12/23 02:07:22;;;;;;;1.27;1.08;;;;;;;;;;10016031;28;20049;-73
2023/12/23 02:12:22;;;;;;;1.08;1.08;;;;;;;;;;10013920;28;20038;-73
2023/12/23 02:17:14;;;;;;;1.58;1.10;;;;;;;;;;10027323;28;20069;-73
2023/12/23 02:22:08;;;;;;;10.43;7.32;;;;;;;;;;10015335;28;20038;-73
2023/12/23 02:27:07;;;;;;;3.65;1.70;;;;;;;;;;10012562;28;20034;-73
2023/12/23 02:32:01;;;;;;;1.58;1.08;;;;;;;;;;10016548;28;20480;-73
2023/12/23 02:36:52;;;;;;;1.00;1.00;;;;;;;;;;10016322;28;20061;-72
2023/12/23 02:41:44;;;;;;;0.95;0.95;;;;;;;;;;10023830;28;20621;-72
2023/12/23 02:46:37;;;;;;;5.28;1.90;;;;;;;;;;10018301;28;20081;-73
2023/12/23 02:51:29;;;;;;;13.82;4.88;;;;;;;;;;10019284;28;20073;-73
2023/12/23 02:56:21;;;;;;;7.53;7.00;;;;;;;;;;10021459;28;20133;-73
2023/12/23 03:01:13;;;;;;;1.70;1.20;;;;;;;;;;10022674;28;20038;-73
2023/12/23 03:06:05;;;;;;;79.40;14.05;;;;;;;;;;10015895;28;20057;-73
2023/12/23 03:10:57;;;;;;;0.70;0.70;;;;;;;;;;10015670;28;20072;-73
2023/12/23 03:15:49;;;;;;;0.65;0.63;;;;;;;;;;10020801;28;20042;-73
2023/12/23 03:20:41;;;;;;;1.25;0.80;;;;;;;;;;10018829;28;20045;-75
2023/12/23 03:25:32;;;;;;;1.48;1.02;;;;;;;;;;10018510;28;20046;-73
2023/12/23 03:30:24;;;;;;;1.38;0.90;;;;;;;;;;10019734;28;20071;-74
2023/12/23 03:35:18;;;;;;;1.00;0.90;;;;;;;;;;10020936;28;20077;-73
2023/12/23 03:40:11;;;;;;;0.68;0.68;;;;;;;;;;10014737;28;20132;-73
2023/12/23 03:45:03;;;;;;;9.10;8.38;;;;;;;;;;10019031;28;20042;-74
2023/12/23 03:49:55;;;;;;;18.52;17.35;;;;;;;;;;10016683;28;20041;-73
2023/12/23 03:54:48;;;;;;;0.65;0.65;;;;;;;;;;10016873;28;20037;-74
2023/12/23 03:59:40;;;;;;;21.23;19.67;;;;;;;;;;10021191;28;20140;-74
2023/12/23 04:04:32;;;;;;;0.70;0.70;;;;;;;;;;10017344;28;20050;-74
2023/12/23 04:09:24;;;;;;;2.55;2.35;;;;;;;;;;10019948;28;20046;-74
2023/12/23 04:14:17;;;;;;;2.83;1.80;;;;;;;;;;10020994;28;20056;-74
2023/12/23 04:19:09;;;;;;;2.28;0.93;;;;;;;;;;10016590;28;20084;-74
2023/12/23 04:24:01;;;;;;;51.60;41.22;;;;;;;;;;10019786;28;20372;-75
2023/12/23 04:28:53;;;;;;;25.80;10.32;;;;;;;;;;10016835;28;20421;-73
2023/12/23 04:33:47;;;;;;;7.75;7.00;;;;;;;;;;10017511;28;20096;-73
2023/12/23 04:38:39;;;;;;;1.70;0.88;;;;;;;;;;10018189;28;20355;-73
2023/12/23 04:43:32;;;;;;;2.00;0.60;;;;;;;;;;10018371;28;20467;-74
2023/12/23 04:48:25;;;;;;;1.75;0.60;;;;;;;;;;10016357;28;20473;-74
2023/12/23 04:53:18;;;;;;;0.80;0.50;;;;;;;;;;10014489;28;20053;-73
2023/12/23 04:58:10;;;;;;;112.65;40.42;;;;;;;;;;10017952;28;20384;-74
2023/12/23 05:03:02;;;;;;;3.30;0.70;;;;;;;;;;10017323;28;20429;-74
2023/12/23 05:07:54;;;;;;;0.50;0.50;;;;;;;;;;10017054;28;20428;-73
2023/12/23 05:12:46;;;;;;;0.68;0.68;;;;;;;;;;10015190;28;20144;-74
2023/12/23 05:17:38;;;;;;;0.65;0.65;;;;;;;;;;10019206;28;20050;-74
2023/12/23 05:22:30;;;;;;;57.95;11.30;;;;;;;;;;10021374;28;20121;-74
2023/12/23 05:27:22;;;;;;;112.38;16.70;;;;;;;;;;10021387;28;20046;-74
2023/12/23 05:32:15;;;;;;;0.82;0.60;;;;;;;;;;10037921;28;20050;-75
2023/12/23 05:37:07;;;;;;;56.90;8.82;;;;;;;;;;10022560;28;20393;-74
2023/12/23 05:41:59;;;;;;;0.80;0.80;;;;;;;;;;10023988;28;20446;-74
2023/12/23 05:46:51;;;;;;;6.22;5.78;;;;;;;;;;10023477;28;20066;-74
2023/12/23 05:51:43;;;;;;;0.65;0.60;;;;;;;;;;10023073;28;20050;-74
2023/12/23 05:56:34;;;;;;;0.52;0.52;;;;;;;;;;10023248;28;20057;-75
2023/12/23 06:01:26;;;;;;;0.60;0.50;;;;;;;;;;10022851;28;20057;-74
2023/12/23 06:06:18;;;;;;;5.55;5.18;;;;;;;;;;10020623;28;20105;-74
2023/12/23 06:11:11;;;;;;;0.75;0.70;;;;;;;;;;10023128;28;20786;-74
2023/12/23 06:16:06;;;;;;;1.27;0.60;;;;;;;;;;10027326;28;20053;-74
2023/12/23 06:20:58;;;;;;;0.75;0.60;;;;;;;;;;10028152;28;20145;-74
2023/12/23 06:25:51;;;;;;;0.60;0.60;;;;;;;;;;10023969;28;20057;-74
2023/12/23 06:30:42;;;;;;;5.32;1.70;;;;;;;;;;10016027;28;20080;-74
2023/12/23 06:35:34;;;;;;;38.33;3.38;;;;;;;;;;10009895;28;20362;-75
2023/12/23 06:40:28;;;;;;;173.82;52.28;;;;;;;;;;10021553;28;20038;-74
2023/12/23 06:45:20;;;;;;;0.38;0.38;;;;;;;;;;10013663;28;20050;-75
2023/12/23 06:50:12;;;;;;;0.77;0.60;;;;;;;;;;10019919;28;20133;-75
2023/12/23 06:55:05;;;;;;;0.68;0.50;;;;;;;;;;10024739;28;20045;-74
2023/12/23 06:59:58;;;;;;;2.08;0.60;;;;;;;;;;10025718;28;20092;-76
2023/12/23 07:04:50;;;;;;;0.50;0.50;;;;;;;;;;10025112;28;20057;-76
2023/12/23 07:09:43;;;;;;;0.52;0.50;;;;;;;;;;10024656;28;20052;-77
2023/12/23 07:14:37;;;;;;;2.28;1.05;;;;;;;;;;10025275;28;20145;-76
2023/12/23 07:19:30;;;;;;;17.95;16.50;;;;;;;;;;10024794;28;20038;-77
2023/12/23 07:24:22;;;;;;;0.70;0.70;;;;;;;;;;10024361;28;20104;-77
2023/12/23 07:29:14;;;;;;;0.75;0.60;;;;;;;;;;10024643;28;20041;-77
2023/12/23 07:34:06;;;;;;;1.02;0.60;;;;;;;;;;10024715;28;20042;-76
2023/12/23 07:38:58;;;;;;;0.60;0.60;;;;;;;;;;10024035;28;20050;-77
2023/12/23 07:43:50;;;;;;;1.10;0.98;;;;;;;;;;9982742;28;1190264;-77
2023/12/23 07:48:42;;;;;;;30.00;26.05;;;;;;;;;;10021385;28;20115;-77
2023/12/23 07:53:34;;;;;;;0.47;0.47;;;;;;;;;;10020017;28;20676;-76
2023/12/23 07:58:27;;;;;;;2.58;2.47;;;;;;;;;;10014996;28;20326;-76
2023/12/23 08:03:20;;;;;;;0.47;0.47;;;;;;;;;;10017832;28;20512;-77
2023/12/23 08:08:13;;;;;;;178.32;36.70;;;;;;;;;;10022571;28;20057;-77
2023/12/23 08:13:06;;;;;;;0.35;0.35;;;;;;;;;;10023181;28;20133;-76
2023/12/23 08:17:58;;;;;;;0.40;0.40;;;;;;;;;;10022124;28;20130;-77
2023/12/23 08:22:51;;;;;;;1.45;0.50;;;;;;;;;;10019887;28;20421;-75
2023/12/23 08:27:43;;;;;;;1.33;0.70;;;;;;;;;;10020992;28;20042;-77
2023/12/23 08:32:35;;;;;;;1.75;0.90;;;;;;;;;;10018874;28;20100;-77
2023/12/23 08:37:28;;;;;;;1.13;0.90;;;;;;;;;;10018106;28;20072;-76
2023/12/23 08:42:20;;;;;;;0.88;0.70;;;;;;;;;;10019334;28;20100;-75
2023/12/23 08:47:12;;;;;;;0.70;0.70;;;;;;;;;;10023638;28;20567;-77
2023/12/23 08:52:05;;;;;;;1.73;0.52;;;;;;;;;;10021548;28;20038;-79
2023/12/23 08:56:58;;;;;;;0.50;0.50;;;;;;;;;;10024329;28;20126;-75
2023/12/23 09:01:50;;;;;;;1.27;1.10;;;;;;;;;;10023689;28;20156;-74
2023/12/23 09:06:42;;;;;;;0.77;0.77;;;;;;;;;;10023275;28;20592;-78
2023/12/23 09:11:34;;;;;;;23.20;9.63;;;;;;;;;;10021724;28;20147;-79
2023/12/23 09:16:26;;;;;;;1.10;0.50;;;;;;;;;;10019842;28;20870;-77
2023/12/23 09:21:18;;;;;;;4.57;0.57;;;;;;;;;;10023000;28;20095;-77
2023/12/23 09:26:11;;;;;;;4.82;4.60;;;;;;;;;;10019679;28;20126;-77
2023/12/23 09:31:03;;;;;;;49.15;23.17;;;;;;;;;;10021865;28;20485;-77
2023/12/23 09:35:55;;;;;;;12.23;11.52;;;;;;;;;;10022396;28;20038;-77
2023/12/23 09:40:46;;;;;;;0.50;0.50;;;;;;;;;;10020674;28;20121;-76
2023/12/23 09:45:39;;;;;;;0.45;0.45;;;;;;;;;;10021770;28;20053;-76
2023/12/23 09:50:31;;;;;;;0.40;0.40;;;;;;;;;;10018988;28;20053;-76
2023/12/23 09:55:24;;;;;;;1.17;0.40;;;;;;;;;;10019342;28;20042;-77
2023/12/23 10:00:16;;;;;;;0.65;0.60;;;;;;;;;;10019940;28;20143;-76
2023/12/23 10:05:08;;;;;;;0.50;0.45;;;;;;;;;;10022290;28;20469;-76
2023/12/23 10:10:00;;;;;;;0.30;0.30;;;;;;;;;;10021239;28;20484;-76
2023/12/23 10:14:52;;;;;;;0.50;0.50;;;;;;;;;;10015926;28;20601;-76
2023/12/23 10:19:47;;;;;;;1.08;0.75;;;;;;;;;;10018175;28;20125;-75
2023/12/23 10:24:39;;;;;;;4.88;3.60;;;;;;;;;;10014895;28;20057;-76
2023/12/23 10:29:33;;;;;;;0.50;0.50;;;;;;;;;;10020405;28;20145;-76
2023/12/23 10:34:25;;;;;;;1.63;1.45;;;;;;;;;;10018814;28;20428;-76
2023/12/23 10:39:28;;;;;;;1.83;1.05;;;;;;;;;;10019146;28;20437;-75
2023/12/23 10:44:20;;;;;;;1.08;0.80;;;;;;;;;;10018272;28;20112;-76
2023/12/23 10:49:13;;;;;;;0.40;0.40;;;;;;;;;;10019705;28;20038;-76
2023/12/23 10:54:07;;;;;;;0.77;0.60;;;;;;;;;;10020917;28;20050;-73
2023/12/23 10:59:00;;;;;;;1.38;0.73;;;;;;;;;;10026067;28;20041;-76
2023/12/23 11:03:54;;;;;;;3.30;0.57;;;;;;;;;;10027962;28;20058;-74
2023/12/23 11:08:48;;;;;;;1.20;0.60;;;;;;;;;;10025314;28;20116;-74
2023/12/23 11:13:40;;;;;;;1.38;0.80;;;;;;;;;;10021804;28;20138;-73
2023/12/23 11:18:32;;;;;;;0.68;0.60;;;;;;;;;;10025089;28;20128;-73
2023/12/23 11:23:27;;;;;;;0.80;0.77;;;;;;;;;;10023078;28;20069;-74
2023/12/23 11:28:19;;;;;;;0.70;0.70;;;;;;;;;;10020547;28;20072;-76
2023/12/23 11:33:12;;;;;;;0.80;0.70;;;;;;;;;;10019480;28;20136;-73
2023/12/23 11:38:04;;;;;;;0.55;0.55;;;;;;;;;;10022849;28;20065;-73
2023/12/23 11:42:56;;;;;;;0.60;0.60;;;;;;;;;;10023094;28;20042;-75
2023/12/23 11:47:49;;;;;;;0.65;0.52;;;;;;;;;;10024451;28;20420;-76
2023/12/23 11:52:42;;;;;;;0.95;0.90;;;;;;;;;;10022250;28;20077;-74
2023/12/23 11:57:35;;;;;;;0.73;0.68;;;;;;;;;;10021428;28;20084;-74
2023/12/23 12:02:27;;;;;;;0.95;0.57;;;;;;;;;;10016684;28;20058;-77
2023/12/23 12:07:20;;;;;;;0.73;0.73;;;;;;;;;;10021438;28;20041;-80
2023/12/23 12:12:13;;;;;;;0.63;0.63;;;;;;;;;;10022859;28;20100;-76
2023/12/23 12:17:06;;;;;;;1.17;1.00;;;;;;;;;;10023051;28;20069;-77
2023/12/23 12:22:01;;;;;;;0.65;0.63;;;;;;;;;;10023340;28;20497;-77
2023/12/23 12:26:53;;;;;;;0.82;0.70;;;;;;;;;;10023743;28;20038;-77
2023/12/23 12:31:45;;;;;;;0.63;0.63;;;;;;;;;;10023740;28;20049;-77
2023/12/23 12:36:37;;;;;;;1.77;0.80;;;;;;;;;;10023415;28;20058;-76
2023/12/23 12:41:29;;;;;;;1.85;0.90;;;;;;;;;;10019956;28;20050;-77
2023/12/23 12:46:21;;;;;;;11.15;5.95;;;;;;;;;;10016933;28;20049;-77
2023/12/23 12:51:15;;;;;;;6.53;3.42;;;;;;;;;;10022182;28;20503;-77
2023/12/23 12:56:11;;;;;;;6.50;2.17;;;;;;;;;;10021677;28;20041;-76
2023/12/23 13:01:03;;;;;;;3.17;1.20;;;;;;;;;;10023227;28;20048;-77
2023/12/23 13:05:56;;;;;;;0.90;0.80;;;;;;;;;;10021132;28;20452;-77
2023/12/23 13:10:48;;;;;;;0.70;0.60;;;;;;;;;;10021048;28;20042;-77
2023/12/23 13:15:41;;;;;;;2.72;0.90;;;;;;;;;;10021556;28;21187;-77
2023/12/23 13:20:33;;;;;;;2.10;1.17;;;;;;;;;;10022104;28;20084;-76
2023/12/23 13:25:25;;;;;;;3.75;1.40;;;;;;;;;;10013001;28;20034;-76
2023/12/23 13:30:17;;;;;;;3.83;2.30;;;;;;;;;;10016174;28;20611;-77
2023/12/23 13:35:09;;;;;;;2.65;1.50;;;;;;;;;;10018593;28;20045;-77
2023/12/23 13:40:01;;;;;;;3.00;1.60;;;;;;;;;;10015141;28;20077;-74
2023/12/23 13:44:53;;;;;;;1.52;0.93;;;;;;;;;;10020449;28;20076;-78
2023/12/23 13:49:44;;;;;;;1.20;0.93;;;;;;;;;;10016421;28;20380;-81
2023/12/23 13:54:37;;;;;;;2.03;0.80;;;;;;;;;;10021936;28;20104;-78
2023/12/23 13:59:28;;;;;;;1.33;0.52;;;;;;;;;;10018559;28;20052;-76
2023/12/23 14:04:20;;;;;;;2.25;0.77;;;;;;;;;;10019924;28;20042;-77
2023/12/23 14:09:12;;;;;;;1.48;0.52;;;;;;;;;;10020842;28;20472;-77
2023/12/23 14:14:04;;;;;;;1.40;0.60;;;;;;;;;;10019633;28;20055;-77
2023/12/23 14:18:56;;;;;;;0.68;0.60;;;;;;;;;;10019590;28;20042;-77
2023/12/23 14:23:48;;;;;;;0.60;0.60;;;;;;;;;;10012570;28;20153;-78
2023/12/23 14:28:40;;;;;;;1.25;0.60;;;;;;;;;;10001587;28;20049;-78
2023/12/23 14:33:32;;;;;;;0.65;0.60;;;;;;;;;;10028701;28;20045;-78
2023/12/23 14:38:26;;;;;;;0.75;0.50;;;;;;;;;;10031461;28;20128;-76
2023/12/23 14:43:19;;;;;;;6.22;1.00;;;;;;;;;;10027611;28;20495;-77
2023/12/23 14:48:10;;;;;;;2.45;0.70;;;;;;;;;;10021407;28;20104;-76
2023/12/23 14:53:03;;;;;;;1.02;0.85;;;;;;;;;;10029702;28;20088;-77
2023/12/23 14:57:55;;;;;;;1.33;1.20;;;;;;;;;;10006787;28;20089;-76
2023/12/23 15:02:47;;;;;;;1.55;0.68;;;;;;;;;;9990487;28;20366;-77
2023/12/23 15:07:39;;;;;;;8.10;2.35;;;;;;;;;;10018932;28;20047;-78
2023/12/23 15:12:32;;;;;;;1.15;0.70;;;;;;;;;;9990314;28;20109;-77
2023/12/23 15:17:24;;;;;;;0.43;0.43;;;;;;;;;;9987941;28;20050;-77
2023/12/23 15:22:16;;;;;;;2.88;0.80;;;;;;;;;;9997405;28;20046;-77
2023/12/23 15:27:08;;;;;;;1.75;0.95;;;;;;;;;;10012335;28;20527;-77
2023/12/23 15:32:00;;;;;;;4.18;1.58;;;;;;;;;;9999025;28;20104;-79
2023/12/23 15:36:52;;;;;;;1.95;1.10;;;;;;;;;;9994244;28;20508;-78
2023/12/23 15:41:47;;;;;;;3.92;0.70;;;;;;;;;;9989107;28;20485;-78
2023/12/23 15:46:39;;;;;;;0.60;0.60;;;;;;;;;;9992629;28;20080;-78
2023/12/23 15:51:31;;;;;;;1.55;0.98;;;;;;;;;;9995179;28;20041;-78
2023/12/23 15:56:24;;;;;;;11.82;2.38;;;;;;;;;;9989159;28;20046;-78
2023/12/23 16:01:16;;;;;;;0.80;0.63;;;;;;;;;;9987205;28;20129;-78
2023/12/23 16:06:15;;;;;;;1.55;1.17;;;;;;;;;;9986938;28;20069;-78
2023/12/23 16:11:07;;;;;;;0.75;0.70;;;;;;;;;;9988877;28;20097;-79
2023/12/23 16:15:59;;;;;;;2.63;0.70;;;;;;;;;;9991063;28;20148;-78
2023/12/23 16:20:52;;;;;;;4.32;1.00;;;;;;;;;;9991766;28;20043;-77
2023/12/23 16:25:44;;;;;;;3.17;1.10;;;;;;;;;;9991261;28;20050;-78
2023/12/23 16:30:35;;;;;;;2.47;1.23;;;;;;;;;;9989804;28;20050;-78
2023/12/23 16:35:27;;;;;;;1.17;1.08;;;;;;;;;;9998336;28;20417;-78
2023/12/23 16:40:20;;;;;;;1.02;0.90;;;;;;;;;;9990355;28;20113;-78
2023/12/23 16:45:15;;;;;;;0.95;0.70;;;;;;;;;;9989317;28;20100;-78
2023/12/23 16:50:08;;;;;;;65.82;17.92;;;;;;;;;;9992014;28;20528;-78
2023/12/23 16:54:59;;;;;;;1.23;0.70;;;;;;;;;;9986977;28;20129;-78
2023/12/23 16:59:51;;;;;;;0.73;0.60;;;;;;;;;;9989881;28;20085;-78
2023/12/23 17:04:43;;;;;;;4.10;1.65;;;;;;;;;;9989016;28;20145;-79
2023/12/23 17:09:35;;;;;;;1.67;1.20;;;;;;;;;;9991001;28;20034;-79
2023/12/23 17:14:27;;;;;;;3.42;1.85;;;;;;;;;;9989039;28;20035;-78
2023/12/23 17:19:19;;;;;;;2.95;1.20;;;;;;;;;;9989421;28;20042;-78
2023/12/23 17:24:11;;;;;;;4.47;1.58;;;;;;;;;;9990046;28;20046;-79
2023/12/23 17:29:03;;;;;;;1.50;1.23;;;;;;;;;;10003239;28;20086;-79
2023/12/23 17:33:55;;;;;;;2.78;0.90;;;;;;;;;;10001428;28;20469;-79
2023/12/23 17:38:49;;;;;;;1.02;0.98;;;;;;;;;;9987637;28;20046;-78
2023/12/23 17:43:41;;;;;;;1.70;1.17;;;;;;;;;;9988222;28;20054;-78
2023/12/23 17:48:33;;;;;;;3.90;1.00;;;;;;;;;;9987421;28;20057;-79
2023/12/23 17:53:25;;;;;;;0.70;0.70;;;;;;;;;;9989353;28;20037;-78
2023/12/23 17:58:17;;;;;;;2.17;1.10;;;;;;;;;;9988059;28;20061;-79
2023/12/23 18:03:10;;;;;;;1.20;0.90;;;;;;;;;;9987147;28;20046;-79
2023/12/23 18:08:05;;;;;;;1.73;1.15;;;;;;;;;;9986532;28;20279;-79
2023/12/23 18:12:57;;;;;;;6.10;5.78;;;;;;;;;;9988176;28;20043;-79
2023/12/23 18:17:53;;;;;;;1.15;0.90;;;;;;;;;;9986827;28;20457;-78
2023/12/23 18:22:47;;;;;;;1.65;1.25;;;;;;;;;;9986967;28;20052;-78
2023/12/23 18:27:39;;;;;;;1.33;1.17;;;;;;;;;;9987940;28;20052;-79
2023/12/23 18:32:31;;;;;;;0.85;0.75;;;;;;;;;;9990715;28;20121;-79
2023/12/23 18:37:23;;;;;;;1.50;1.10;;;;;;;;;;9986444;28;20046;-78
2023/12/23 18:42:15;;;;;;;3.90;2.67;;;;;;;;;;9990163;28;20046;-78
2023/12/23 18:47:07;;;;;;;2.42;1.23;;;;;;;;;;9986508;28;20082;-78
2023/12/23 18:51:59;;;;;;;1.58;1.30;;;;;;;;;;9990915;28;20083;-76
2023/12/23 18:56:50;;;;;;;1.65;1.20;;;;;;;;;;9988418;28;20418;-75
2023/12/23 19:01:43;;;;;;;1.27;1.15;;;;;;;;;;9987910;28;20567;-74
2023/12/23 19:06:34;;;;;;;5.20;1.27;;;;;;;;;;9987956;28;20048;-75
2023/12/23 19:11:26;;;;;;;1.77;1.23;;;;;;;;;;9985915;28;20042;-74
2023/12/23 19:16:18;;;;;;;1.08;0.98;;;;;;;;;;9988270;28;20058;-74
2023/12/23 19:21:10;;;;;;;2.88;1.60;;;;;;;;;;9997374;28;20046;-74
2023/12/23 19:26:02;;;;;;;3.05;2.10;;;;;;;;;;9993193;28;20053;-75
2023/12/23 19:30:56;;;;;;;6.85;6.35;;;;;;;;;;9994202;28;20046;-75
2023/12/23 19:35:49;;;;;;;2.85;1.83;;;;;;;;;;9997104;28;20050;-73
2023/12/23 19:40:41;;;;;;;2.58;1.30;;;;;;;;;;9992834;28;20097;-73
2023/12/23 19:45:33;;;;;;;1.48;1.27;;;;;;;;;;9994230;28;20047;-72
2023/12/23 19:50:24;;;;;;;1.48;1.17;;;;;;;;;;9993593;28;20046;-80
2023/12/23 19:55:16;;;;;;;2.08;1.02;;;;;;;;;;9997917;28;20191;-81
2023/12/23 20:00:09;;;;;;;4.15;1.23;;;;;;;;;;9992258;28;20113;-80
2023/12/23 20:05:02;;;;;;;2.20;1.45;;;;;;;;;;9991222;28;20051;-81
2023/12/23 20:09:53;;;;;;;0.70;0.70;;;;;;;;;;9989265;28;20058;-82
2023/12/23 20:14:45;;;;;;;1.15;0.73;;;;;;;;;;9993427;28;20455;-81
2023/12/23 20:19:37;;;;;;;1.00;0.90;;;;;;;;;;9999113;28;20439;-81
2023/12/23 20:24:29;;;;;;;1.45;1.00;;;;;;;;;;9990578;28;20041;-81
2023/12/23 20:29:21;;;;;;;1.40;0.70;;;;;;;;;;9993586;28;20133;-81
2023/12/23 20:34:13;;;;;;;0.80;0.80;;;;;;;;;;9995854;28;20115;-83
2023/12/23 20:39:05;;;;;;;0.77;0.63;;;;;;;;;;9988565;28;20043;-82
2023/12/23 20:43:56;;;;;;;1.20;0.80;;;;;;;;;;9990439;28;20042;-80
2023/12/23 20:48:48;;;;;;;2.95;0.60;;;;;;;;;;9995977;28;20049;-81
2023/12/23 20:53:41;;;;;;;1.25;0.70;;;;;;;;;;9992372;28;20049;-83
2023/12/23 20:58:33;;;;;;;4.57;2.08;;;;;;;;;;9989196;28;20097;-81
2023/12/23 21:03:25;;;;;;;1.05;0.95;;;;;;;;;;9990014;28;20044;-82
2023/12/23 21:08:17;;;;;;;1.00;0.90;;;;;;;;;;9989260;28;20480;-82
2023/12/23 21:13:09;;;;;;;1.08;0.80;;;;;;;;;;9988683;28;20046;-81
2023/12/23 21:18:00;;;;;;;4.15;1.30;;;;;;;;;;9989705;28;20046;-80
2023/12/23 21:22:52;;;;;;;1.27;1.02;;;;;;;;;;10007936;28;20041;-81
2023/12/23 21:27:45;;;;;;;1.30;1.00;;;;;;;;;;9988869;28;20037;-81
2023/12/23 21:32:37;;;;;;;1.00;0.85;;;;;;;;;;9996587;28;20034;-81
2023/12/23 21:37:29;;;;;;;1.55;1.08;;;;;;;;;;10002635;28;20052;-81
2023/12/23 21:42:20;;;;;;;1.85;0.85;;;;;;;;;;10020756;28;20124;-80
2023/12/23 21:47:12;;;;;;;0.88;0.88;;;;;;;;;;10023403;28;20074;-80
2023/12/23 21:52:05;;;;;;;1.23;1.05;;;;;;;;;;10025110;28;20042;-80
2023/12/23 21:56:58;;;;;;;1.23;1.00;;;;;;;;;;10025032;28;20088;-80
2023/12/23 22:01:50;;;;;;;1.70;0.98;;;;;;;;;;10024973;28;20533;-80
2023/12/23 22:06:45;;;;;;;2.35;2.05;;;;;;;;;;10025274;28;20144;-80
2023/12/23 22:11:37;;;;;;;1.83;0.90;;;;;;;;;;10024642;28;20046;-80
2023/12/23 22:16:29;;;;;;;1.85;0.95;;;;;;;;;;10024240;28;20078;-80
2023/12/23 22:21:21;;;;;;;5.15;1.65;;;;;;;;;;10024670;28;20050;-79
2023/12/23 22:26:13;;;;;;;2.42;1.63;;;;;;;;;;10023390;28;20057;-80
2023/12/23 22:31:04;;;;;;;0.80;0.70;;;;;;;;;;10011818;28;20046;-82
2023/12/23 22:35:56;;;;;;;0.60;0.60;;;;;;;;;;10024032;28;20042;-80
2023/12/23 22:40:48;;;;;;;0.50;0.50;;;;;;;;;;10024016;28;20089;-80
2023/12/23 22:45:40;;;;;;;0.60;0.60;;;;;;;;;;10025424;28;20535;-81
2023/12/23 22:50:32;;;;;;;1.85;1.55;;;;;;;;;;10024023;28;20089;-80
2023/12/23 22:55:24;;;;;;;1.63;0.82;;;;;;;;;;10030293;28;20046;-81
2023/12/23 23:00:18;;;;;;;1.30;0.50;;;;;;;;;;10032242;28;20125;-81
2023/12/23 23:05:10;;;;;;;0.60;0.60;;;;;;;;;;10031144;28;20112;-81
2023/12/23 23:10:03;;;;;;;0.75;0.75;;;;;;;;;;10030788;28;20050;-81
2023/12/23 23:14:55;;;;;;;2.67;2.45;;;;;;;;;;10031703;28;20526;-81
2023/12/23 23:19:48;;;;;;;2.13;1.30;;;;;;;;;;10030140;28;20042;-81
2023/12/23 23:24:40;;;;;;;2.40;1.88;;;;;;;;;;10030534;28;20058;-81
2023/12/23 23:29:32;;;;;;;7.28;4.07;;;;;;;;;;10030772;28;20125;-81
2023/12/23 23:34:24;;;;;;;4.65;2.95;;;;;;;;;;10030375;28;20053;-82
2023/12/23 23:39:15;;;;;;;3.85;2.83;;;;;;;;;;10029997;28;20132;-81
2023/12/23 23:44:07;;;;;;;2.88;2.42;;;;;;;;;;10031072;28;20049;-80
2023/12/23 23:48:59;;;;;;;3.05;2.30;;;;;;;;;;10031883;28;20054;-81
2023/12/23 23:53:52;;;;;;;3.00;2.50;;;;;;;;;;10029675;28;20141;-82
2023/12/23 23:58:46;;;;;;;1.60;1.42;;;;;;;;;;10041820;28;20041;-82
